createdAt,value
2018-06-11T00:01:40.988Z,82.85
2018-06-11T00:04:09.777Z,82.20
2018-06-11T00:06:38.553Z,81.48
2018-06-11T00:09:08.511Z,80.61
2018-06-11T00:11:37.581Z,80.73
2018-06-11T00:14:06.391Z,80.69
2018-06-11T00:16:35.163Z,80.89
2018-06-11T00:19:04.081Z,81.20
2018-06-11T00:21:32.904Z,81.85
2018-06-11T00:24:01.695Z,81.98
2018-06-11T00:26:30.498Z,82.28
2018-06-11T00:28:59.269Z,82.37
2018-06-11T00:31:28.017Z,82.64
2018-06-11T00:33:56.847Z,82.82
2018-06-11T00:36:25.606Z,82.92
2018-06-11T00:38:54.414Z,82.87
2018-06-11T00:41:23.254Z,82.37
2018-06-11T00:43:52.084Z,82.37
2018-06-11T00:46:20.851Z,81.42
2018-06-11T00:48:49.608Z,82.01
2018-06-11T00:51:18.419Z,81.99
2018-06-11T00:53:47.216Z,82.69
2018-06-11T00:56:16.003Z,83.05
2018-06-11T00:58:44.765Z,82.73
2018-06-11T01:01:13.500Z,82.78
2018-06-11T01:03:42.326Z,82.96
2018-06-11T01:06:11.194Z,82.59
2018-06-11T01:08:39.991Z,82.84
2018-06-11T01:11:08.765Z,82.74
2018-06-11T01:13:37.613Z,82.83
2018-06-11T01:16:06.439Z,82.98
2018-06-11T01:18:35.198Z,82.86
2018-06-11T01:21:03.933Z,82.95
2018-06-11T01:23:32.708Z,83.08
2018-06-11T01:26:01.465Z,83.10
2018-06-11T01:28:30.327Z,83.05
2018-06-11T01:30:59.093Z,83.00
2018-06-11T01:33:27.853Z,83.29
2018-06-11T01:35:56.688Z,83.40
2018-06-11T01:38:25.466Z,83.43
2018-06-11T01:40:54.198Z,83.30
2018-06-11T01:43:22.958Z,83.32
2018-06-11T01:45:51.731Z,83.08
2018-06-11T01:48:20.497Z,83.15
2018-06-11T01:50:49.335Z,83.29
2018-06-11T01:53:18.078Z,82.94
2018-06-11T01:55:46.823Z,83.20
2018-06-11T01:58:15.675Z,83.13
2018-06-11T02:00:44.440Z,83.31
2018-06-11T02:03:13.231Z,83.21
2018-06-11T02:05:42.009Z,83.24
2018-06-11T02:08:10.750Z,83.16
2018-06-11T02:10:39.515Z,83.49
2018-06-11T02:13:08.290Z,83.69
2018-06-11T02:15:37.059Z,83.80
2018-06-11T02:18:06.097Z,83.87
2018-06-11T02:20:34.944Z,83.91
2018-06-11T02:23:03.688Z,83.89
2018-06-11T02:25:32.523Z,83.91
2018-06-11T02:28:01.270Z,84.06
2018-06-11T02:30:30.043Z,84.07
2018-06-11T02:32:58.808Z,84.04
2018-06-11T02:35:27.644Z,84.14
2018-06-11T02:37:56.438Z,84.24
2018-06-11T02:40:25.211Z,83.90
2018-06-11T02:42:54.038Z,84.45
2018-06-11T02:45:22.790Z,84.33
2018-06-11T02:47:51.537Z,84.38
2018-06-11T02:50:20.379Z,84.44
2018-06-11T02:52:49.139Z,84.53
2018-06-11T02:55:17.914Z,84.14
2018-06-11T02:57:46.753Z,84.06
2018-06-11T03:00:15.540Z,84.09
2018-06-11T03:02:44.314Z,83.96
2018-06-11T03:05:13.127Z,83.35
2018-06-11T03:07:41.880Z,82.39
2018-06-11T03:10:10.654Z,81.67
2018-06-11T03:12:39.471Z,80.12
2018-06-11T03:15:08.241Z,78.42
2018-06-11T03:17:37.004Z,76.84
2018-06-11T03:20:05.940Z,74.30
2018-06-11T03:22:34.739Z,71.81
2018-06-11T03:25:03.658Z,69.10
2018-06-11T03:27:32.418Z,66.14
2018-06-11T03:30:01.165Z,64.20
2018-06-11T03:32:29.924Z,61.76
2018-06-11T03:34:58.704Z,59.08
2018-06-11T03:37:27.512Z,57.25
2018-06-11T03:39:56.283Z,54.85
2018-06-11T03:42:25.155Z,53.59
2018-06-11T03:44:53.925Z,51.19
2018-06-11T03:47:22.697Z,49.96
2018-06-11T03:49:51.486Z,47.46
2018-06-11T03:52:20.255Z,43.63
2018-06-11T03:54:48.995Z,42.55
2018-06-11T03:57:17.864Z,42.09
2018-06-11T03:59:46.615Z,39.56
2018-06-11T04:02:15.401Z,41.09
2018-06-11T04:04:44.288Z,40.27
2018-06-11T04:07:13.074Z,40.47
2018-06-11T04:09:42.833Z,40.64
2018-06-11T04:12:11.593Z,39.79
2018-06-11T04:14:40.368Z,40.02
2018-06-11T04:17:09.102Z,38.24
2018-06-11T04:19:37.890Z,37.24
2018-06-11T04:22:06.845Z,35.02
2018-06-11T04:24:35.639Z,33.24
2018-06-11T04:27:04.530Z,31.55
2018-06-11T04:29:33.380Z,30.50
2018-06-11T04:32:02.328Z,28.93
2018-06-11T04:34:31.119Z,29.21
2018-06-11T04:36:59.995Z,26.51
2018-06-11T04:39:28.787Z,27.88
2018-06-11T04:41:57.609Z,26.18
2018-06-11T04:44:26.389Z,26.67
2018-06-11T04:46:55.181Z,28.57
2018-06-11T04:49:24.075Z,27.85
2018-06-11T04:51:52.965Z,28.59
2018-06-11T04:54:21.894Z,26.40
2018-06-11T04:56:50.663Z,25.67
2018-06-11T04:59:19.571Z,26.40
2018-06-11T05:01:48.364Z,25.55
2018-06-11T05:04:17.161Z,25.18
2018-06-11T05:06:46.045Z,25.44
2018-06-11T05:09:14.860Z,25.64
2018-06-11T05:11:43.663Z,27.90
2018-06-11T05:14:12.465Z,25.49
2018-06-11T05:16:41.274Z,27.53
2018-06-11T05:19:10.032Z,28.84
2018-06-11T05:21:38.870Z,29.92
2018-06-11T05:24:07.642Z,29.26
2018-06-11T05:26:36.431Z,30.80
2018-06-11T05:29:05.432Z,30.92
2018-06-11T05:31:34.220Z,29.06
2018-06-11T05:34:03.076Z,29.21
2018-06-11T05:36:31.857Z,31.32
2018-06-11T05:39:00.640Z,32.25
2018-06-11T05:41:29.487Z,34.06
2018-06-11T05:43:58.299Z,34.00
2018-06-11T05:46:27.120Z,35.79
2018-06-11T05:48:55.897Z,34.42
2018-06-11T05:51:24.770Z,36.27
2018-06-11T05:53:53.610Z,34.34
2018-06-11T05:56:22.519Z,37.91
2018-06-11T05:58:51.308Z,35.86
2018-06-11T06:01:20.083Z,36.54
2018-06-11T06:03:48.959Z,36.00
2018-06-11T06:06:17.756Z,38.61
2018-06-11T06:08:46.587Z,38.36
2018-06-11T06:11:15.382Z,38.33
2018-06-11T06:13:44.192Z,37.68
2018-06-11T06:16:12.973Z,38.00
2018-06-11T06:18:41.858Z,37.33
2018-06-11T06:21:10.635Z,38.93
2018-06-11T06:23:39.447Z,39.91
2018-06-11T06:26:08.255Z,40.09
2018-06-11T06:28:37.009Z,41.65
2018-06-11T06:31:05.827Z,38.14
2018-06-11T06:33:34.609Z,40.54
2018-06-11T06:36:03.577Z,38.49
2018-06-11T06:38:32.353Z,38.03
2018-06-11T06:41:01.261Z,37.65
2018-06-11T06:43:30.047Z,39.42
2018-06-11T06:45:58.824Z,38.76
2018-06-11T06:48:27.583Z,37.94
2018-06-11T06:50:56.348Z,38.68
2018-06-11T06:53:25.107Z,37.08
2018-06-11T06:55:53.939Z,38.44
2018-06-11T06:58:22.824Z,38.45
2018-06-11T07:00:51.603Z,38.37
2018-06-11T07:03:20.471Z,39.56
2018-06-11T07:05:49.247Z,38.89
2018-06-11T07:08:18.044Z,38.25
2018-06-11T07:10:46.881Z,38.53
2018-06-11T07:13:15.669Z,39.54
2018-06-11T07:15:44.412Z,38.56
2018-06-11T07:18:13.207Z,38.69
2018-06-11T07:20:42.032Z,37.81
2018-06-11T07:23:10.811Z,39.14
2018-06-11T07:25:39.656Z,41.15
2018-06-11T07:28:08.458Z,38.20
2018-06-11T07:30:37.342Z,40.48
2018-06-11T07:33:06.122Z,39.42
2018-06-11T07:35:34.907Z,41.12
2018-06-11T07:38:03.724Z,40.42
2018-06-11T07:40:32.496Z,40.96
2018-06-11T07:43:01.915Z,40.71
2018-06-11T07:45:30.648Z,42.44
2018-06-11T07:47:59.559Z,41.40
2018-06-11T07:50:28.344Z,39.78
2018-06-11T07:52:57.135Z,39.83
2018-06-11T07:55:25.971Z,37.63
2018-06-11T07:57:54.720Z,41.58
2018-06-11T08:00:23.526Z,39.83
2018-06-11T08:02:52.344Z,39.01
2018-06-11T08:05:21.128Z,40.14
2018-06-11T08:07:49.968Z,39.99
2018-06-11T08:10:18.844Z,42.11
2018-06-11T08:12:47.603Z,40.48
2018-06-11T08:15:16.377Z,41.92
2018-06-11T08:17:45.164Z,41.25
2018-06-11T08:20:14.006Z,39.63
2018-06-11T08:22:42.824Z,40.87
2018-06-11T08:25:11.647Z,40.66
2018-06-11T08:27:40.417Z,42.00
2018-06-11T08:30:09.228Z,42.77
2018-06-11T08:32:38.139Z,43.29
2018-06-11T08:35:07.105Z,42.19
2018-06-11T08:37:35.873Z,43.37
2018-06-11T08:40:04.795Z,41.18
2018-06-11T08:42:33.598Z,42.29
2018-06-11T08:45:02.385Z,41.87
2018-06-11T08:47:31.253Z,44.02
2018-06-11T08:50:00.071Z,44.37
2018-06-11T08:52:28.866Z,43.79
2018-06-11T08:54:57.722Z,43.33
2018-06-11T08:57:26.544Z,44.09
2018-06-11T08:59:55.428Z,44.09
2018-06-11T09:02:24.173Z,44.81
2018-06-11T09:04:52.989Z,43.74
2018-06-11T09:07:21.775Z,42.12
2018-06-11T09:09:50.594Z,43.04
2018-06-11T09:12:19.424Z,44.42
2018-06-11T09:14:48.166Z,41.71
2018-06-11T09:17:17.075Z,41.30
2018-06-11T09:19:45.836Z,41.82
2018-06-11T09:22:14.621Z,42.45
2018-06-11T09:24:43.411Z,41.53
2018-06-11T09:27:12.201Z,43.48
2018-06-11T09:29:40.956Z,41.43
2018-06-11T09:32:09.786Z,39.90
2018-06-11T09:34:38.570Z,41.35
2018-06-11T09:37:07.407Z,42.09
2018-06-11T09:39:36.274Z,42.56
2018-06-11T09:42:05.099Z,40.56
2018-06-11T09:44:33.959Z,39.68
2018-06-11T09:47:02.731Z,38.68
2018-06-11T09:49:31.563Z,39.20
2018-06-11T09:52:00.364Z,38.52
2018-06-11T09:54:29.207Z,40.46
2018-06-11T09:56:58.006Z,40.15
2018-06-11T09:59:26.743Z,40.14
2018-06-11T10:01:55.596Z,40.22
2018-06-11T10:04:24.375Z,39.48
2018-06-11T10:06:53.131Z,38.87
2018-06-11T10:09:21.916Z,39.19
2018-06-11T10:11:50.656Z,38.91
2018-06-11T10:14:19.464Z,38.64
2018-06-11T10:16:48.297Z,38.29
2018-06-11T10:19:17.082Z,37.61
2018-06-11T10:21:45.905Z,38.40
2018-06-11T10:24:14.832Z,37.59
2018-06-11T10:26:43.589Z,38.27
2018-06-11T10:29:12.423Z,40.00
2018-06-11T10:31:41.174Z,37.11
2018-06-11T10:34:09.944Z,38.19
2018-06-11T10:36:38.692Z,38.42
2018-06-11T10:39:08.583Z,34.19
2018-06-11T10:41:37.509Z,37.47
2018-06-11T10:44:06.344Z,37.14
2018-06-11T10:46:35.230Z,36.90
2018-06-11T10:49:04.023Z,34.77
2018-06-11T10:51:32.811Z,34.12
2018-06-11T10:54:01.611Z,35.39
2018-06-11T10:56:30.355Z,36.79
2018-06-11T10:58:59.137Z,35.42
2018-06-11T11:01:27.939Z,37.22
2018-06-11T11:03:56.816Z,36.70
2018-06-11T11:06:25.643Z,34.10
2018-06-11T11:08:54.449Z,35.57
2018-06-11T11:11:23.217Z,34.97
2018-06-11T11:13:52.001Z,33.95
2018-06-11T11:16:20.783Z,34.73
2018-06-11T11:18:49.600Z,34.94
2018-06-11T11:21:18.383Z,36.47
2018-06-11T11:23:47.120Z,35.87
2018-06-11T11:26:15.921Z,36.66
2018-06-11T11:28:44.704Z,38.89
2018-06-11T11:31:13.587Z,37.26
2018-06-11T11:33:42.397Z,35.95
2018-06-11T11:36:11.237Z,35.55
2018-06-11T11:38:39.996Z,35.04
2018-06-11T11:41:08.768Z,35.89
2018-06-11T11:43:37.534Z,36.86
2018-06-11T11:46:06.300Z,36.78
2018-06-11T11:48:35.065Z,38.20
2018-06-11T11:51:03.946Z,37.07
2018-06-11T11:53:32.772Z,37.04
2018-06-11T11:56:01.564Z,37.27
2018-06-11T11:58:30.443Z,35.58
2018-06-11T12:00:59.252Z,36.57
2018-06-11T12:03:28.017Z,37.82
2018-06-11T12:05:56.846Z,35.29
2018-06-11T12:08:25.644Z,35.69
2018-06-11T12:10:54.412Z,38.83
2018-06-11T12:13:23.166Z,38.52
2018-06-11T12:15:51.961Z,37.32
2018-06-11T12:18:20.752Z,37.04
2018-06-11T12:20:49.630Z,37.51
2018-06-11T12:23:18.400Z,36.99
2018-06-11T12:25:47.163Z,38.77
2018-06-11T12:28:16.000Z,38.76
2018-06-11T12:30:44.826Z,39.04
2018-06-11T12:33:13.673Z,38.53
2018-06-11T12:35:42.447Z,36.97
2018-06-11T12:38:11.308Z,38.93
2018-06-11T12:40:40.092Z,38.70
2018-06-11T12:43:08.884Z,38.40
2018-06-11T12:45:37.649Z,38.51
2018-06-11T12:48:06.454Z,37.18
2018-06-11T12:50:35.229Z,37.30
2018-06-11T12:53:04.114Z,36.43
2018-06-11T12:55:32.968Z,36.73
2018-06-11T12:58:01.793Z,36.78
2018-06-11T13:00:30.585Z,37.01
2018-06-11T13:02:59.352Z,36.94
2018-06-11T13:05:28.160Z,37.76
2018-06-11T13:07:56.914Z,36.49
2018-06-11T13:10:25.723Z,37.73
2018-06-11T13:12:54.530Z,36.97
2018-06-11T13:15:23.303Z,36.86
2018-06-11T13:17:52.046Z,37.18
2018-06-11T13:20:20.818Z,37.85
2018-06-11T13:22:49.742Z,35.84
2018-06-11T13:25:18.517Z,34.99
2018-06-11T13:27:47.312Z,36.00
2018-06-11T13:30:16.072Z,35.37
2018-06-11T13:32:44.854Z,35.96
2018-06-11T13:35:13.621Z,36.48
2018-06-11T13:37:42.491Z,35.57
2018-06-11T13:40:11.287Z,36.23
2018-06-11T13:42:40.055Z,35.33
2018-06-11T13:45:08.938Z,35.74
2018-06-11T13:47:37.723Z,36.61
2018-06-11T13:50:06.627Z,36.28
2018-06-11T13:52:35.444Z,36.32
2018-06-11T13:55:04.285Z,36.00
2018-06-11T13:57:33.073Z,36.80
2018-06-11T14:00:01.958Z,35.88
2018-06-11T14:02:30.746Z,35.42
2018-06-11T14:04:59.558Z,35.99
2018-06-11T14:07:28.419Z,36.36
2018-06-11T14:09:57.163Z,37.37
2018-06-11T14:12:25.927Z,37.26
2018-06-11T14:14:54.763Z,37.36
2018-06-11T14:17:23.593Z,37.83
2018-06-11T14:19:52.376Z,37.23
2018-06-11T14:22:21.152Z,37.91
2018-06-11T14:24:49.922Z,38.40
2018-06-11T14:27:18.730Z,38.24
2018-06-11T14:29:47.556Z,38.73
2018-06-11T14:32:16.440Z,38.13
2018-06-11T14:34:45.237Z,37.86
2018-06-11T14:37:14.000Z,38.03
2018-06-11T14:39:42.779Z,38.30
2018-06-11T14:42:11.531Z,38.20
2018-06-11T14:44:40.460Z,38.69
2018-06-11T14:47:09.210Z,38.69
2018-06-11T14:49:38.027Z,38.90
2018-06-11T14:52:06.849Z,38.51
2018-06-11T14:54:35.620Z,37.68
2018-06-11T14:57:04.475Z,37.17
2018-06-11T14:59:33.269Z,36.24
2018-06-11T15:02:02.044Z,36.12
2018-06-11T15:04:30.808Z,36.62
2018-06-11T15:06:59.639Z,36.55
2018-06-11T15:09:28.618Z,37.13
2018-06-11T15:11:57.394Z,37.69
2018-06-11T15:14:26.646Z,37.38
2018-06-11T15:16:55.836Z,37.47
2018-06-11T15:19:24.607Z,37.67
2018-06-11T15:21:53.420Z,36.89
2018-06-11T15:24:22.187Z,36.11
2018-06-11T15:26:50.965Z,36.39
2018-06-11T15:29:19.810Z,36.30
2018-06-11T15:31:48.602Z,36.33
2018-06-11T15:34:17.703Z,37.16
2018-06-11T15:36:46.555Z,37.82
2018-06-11T15:39:15.327Z,36.85
2018-06-11T15:41:44.114Z,37.10
2018-06-11T15:44:12.937Z,36.95
2018-06-11T15:46:41.688Z,37.15
2018-06-11T15:49:10.482Z,36.74
2018-06-11T15:51:39.320Z,37.31
2018-06-11T15:54:08.171Z,36.93
2018-06-11T15:56:36.971Z,37.85
2018-06-11T15:59:05.850Z,37.77
2018-06-11T16:01:34.614Z,38.79
2018-06-11T16:04:03.453Z,39.50
2018-06-11T16:06:32.267Z,39.99
2018-06-11T16:09:01.020Z,40.64
2018-06-11T16:11:29.795Z,40.88
2018-06-11T16:13:58.562Z,41.11
2018-06-11T16:16:27.354Z,41.79
2018-06-11T16:18:56.209Z,42.08
2018-06-11T16:21:25.061Z,42.45
2018-06-11T16:23:54.071Z,42.39
2018-06-11T16:26:22.909Z,43.00
2018-06-11T16:28:51.680Z,42.84
2018-06-11T16:31:20.488Z,44.28
2018-06-11T16:33:49.301Z,43.63
2018-06-11T16:36:18.191Z,44.41
2018-06-11T16:38:46.959Z,43.91
2018-06-11T16:41:15.764Z,43.92
2018-06-11T16:43:44.730Z,43.69
2018-06-11T16:46:13.517Z,43.30
2018-06-11T16:48:42.304Z,44.42
2018-06-11T16:51:11.068Z,44.84
2018-06-11T16:53:39.861Z,44.89
2018-06-11T16:56:08.692Z,46.89
2018-06-11T16:58:37.615Z,46.65
2018-06-11T17:01:06.446Z,45.94
2018-06-11T17:03:35.220Z,46.52
2018-06-11T17:06:04.117Z,46.89
2018-06-11T17:08:32.904Z,47.57
2018-06-11T17:11:01.778Z,47.51
2018-06-11T17:13:30.607Z,47.38
2018-06-11T17:15:59.381Z,47.20
2018-06-11T17:18:28.174Z,48.04
2018-06-11T17:20:56.959Z,48.51
2018-06-11T17:23:25.821Z,48.21
2018-06-11T17:25:54.640Z,48.41
2018-06-11T17:28:23.582Z,50.07
2018-06-11T17:30:52.397Z,48.67
2018-06-11T17:33:21.232Z,49.19
2018-06-11T17:35:50.084Z,48.49
2018-06-11T17:38:18.903Z,48.64
2018-06-11T17:40:47.789Z,49.44
2018-06-11T17:43:16.535Z,49.92
2018-06-11T17:45:45.361Z,49.82
2018-06-11T17:48:14.163Z,50.30
2018-06-11T17:50:43.046Z,50.45
2018-06-11T17:53:11.896Z,50.72
2018-06-11T17:55:40.704Z,50.83
2018-06-11T17:58:09.583Z,51.06
2018-06-11T18:00:38.397Z,50.90
2018-06-11T18:03:07.246Z,50.75
2018-06-11T18:05:36.139Z,51.20
2018-06-11T18:08:04.962Z,51.26
2018-06-11T18:10:33.775Z,51.57
2018-06-11T18:13:02.636Z,51.82
2018-06-11T18:15:31.548Z,53.33
2018-06-11T18:18:00.322Z,54.34
2018-06-11T18:20:29.235Z,53.56
2018-06-11T18:22:58.025Z,53.59
2018-06-11T18:25:26.823Z,53.86
2018-06-11T18:27:55.709Z,54.10
2018-06-11T18:30:24.490Z,55.16
2018-06-11T18:32:53.334Z,56.21
2018-06-11T18:35:22.261Z,55.46
2018-06-11T18:37:51.089Z,54.94
2018-06-11T18:40:19.981Z,56.48
2018-06-11T18:42:48.994Z,56.74
2018-06-11T18:45:17.840Z,56.24
2018-06-11T18:47:46.699Z,57.25
2018-06-11T18:50:15.572Z,56.99
2018-06-11T18:52:44.372Z,57.43
2018-06-11T18:55:13.249Z,57.94
2018-06-11T18:57:42.167Z,58.17
2018-06-11T19:00:11.037Z,58.67
2018-06-11T19:02:39.889Z,58.77
2018-06-11T19:05:08.887Z,59.01
2018-06-11T19:07:37.694Z,59.49
2018-06-11T19:10:07.116Z,59.67
2018-06-11T19:12:36.875Z,60.05
2018-06-11T19:15:05.843Z,59.40
2018-06-11T19:17:34.676Z,60.08
2018-06-11T19:20:03.637Z,60.10
2018-06-11T19:22:32.436Z,60.21
2018-06-11T19:25:01.219Z,60.53
2018-06-11T19:27:30.100Z,60.70
2018-06-11T19:29:58.939Z,61.09
2018-06-11T19:32:27.834Z,61.26
2018-06-11T19:34:56.673Z,61.12
2018-06-11T19:37:25.495Z,60.96
2018-06-11T19:39:54.320Z,61.31
2018-06-11T19:42:23.225Z,61.59
2018-06-11T19:44:52.139Z,61.20
2018-06-11T19:47:20.953Z,61.33
2018-06-11T19:49:49.858Z,62.15
2018-06-11T19:52:18.687Z,62.74
2018-06-11T19:54:47.523Z,62.72
2018-06-11T19:57:16.351Z,63.34
2018-06-11T19:59:45.120Z,64.11
2018-06-11T20:02:13.987Z,64.54
2018-06-11T20:04:42.911Z,63.91
2018-06-11T20:07:11.726Z,64.10
2018-06-11T20:09:40.540Z,64.06
2018-06-11T20:12:09.485Z,64.07
2018-06-11T20:14:38.255Z,64.75
2018-06-11T20:17:07.139Z,64.38
2018-06-11T20:19:35.913Z,64.96
2018-06-11T20:22:04.744Z,65.07
2018-06-11T20:24:33.544Z,65.16
2018-06-11T20:27:02.424Z,65.58
2018-06-11T20:29:31.324Z,65.35
2018-06-11T20:32:00.123Z,65.65
2018-06-11T20:34:28.947Z,65.51
2018-06-11T20:36:57.734Z,65.83
2018-06-11T20:39:26.516Z,65.85
2018-06-11T20:41:55.302Z,65.49
2018-06-11T20:44:24.241Z,65.76
2018-06-11T20:46:53.023Z,66.14
2018-06-11T20:49:21.876Z,66.52
2018-06-11T20:51:50.664Z,66.29
2018-06-11T20:54:19.455Z,66.32
2018-06-11T20:56:48.253Z,67.06
2018-06-11T20:59:17.064Z,66.71
2018-06-11T21:01:45.885Z,67.28
2018-06-11T21:04:14.691Z,67.08
2018-06-11T21:06:43.595Z,68.04
2018-06-11T21:09:12.400Z,67.92
2018-06-11T21:11:41.273Z,67.93
2018-06-11T21:14:10.037Z,67.42
2018-06-11T21:16:38.828Z,67.24
2018-06-11T21:19:07.613Z,67.44
2018-06-11T21:21:36.414Z,67.78
2018-06-11T21:24:05.240Z,67.98
2018-06-11T21:26:33.991Z,67.99
2018-06-11T21:29:02.804Z,68.38
2018-06-11T21:31:31.566Z,69.04
2018-06-11T21:34:00.454Z,69.45
2018-06-11T21:36:29.238Z,69.19
2018-06-11T21:38:58.001Z,69.34
2018-06-11T21:41:26.768Z,69.51
2018-06-11T21:43:55.539Z,69.34
2018-06-11T21:46:24.328Z,69.66
2018-06-11T21:48:53.206Z,69.63
2018-06-11T21:51:22.025Z,69.46
2018-06-11T21:53:50.820Z,70.15
2018-06-11T21:56:19.652Z,69.71
2018-06-11T21:58:48.415Z,69.93
2018-06-11T22:01:17.245Z,69.85
2018-06-11T22:03:46.031Z,70.37
2018-06-11T22:06:14.824Z,70.80
2018-06-11T22:08:43.604Z,70.65
2018-06-11T22:11:12.408Z,70.09
2018-06-11T22:13:41.170Z,70.65
2018-06-11T22:16:09.950Z,70.31
2018-06-11T22:18:38.751Z,70.47
2018-06-11T22:21:07.535Z,69.92
2018-06-11T22:23:36.326Z,70.10
2018-06-11T22:26:05.109Z,70.21
2018-06-11T22:28:33.872Z,70.57
2018-06-11T22:31:02.694Z,70.32
2018-06-11T22:33:31.471Z,70.50
2018-06-11T22:36:00.235Z,70.35
2018-06-11T22:38:29.021Z,70.96
2018-06-11T22:40:57.883Z,70.86
2018-06-11T22:43:26.652Z,71.28
2018-06-11T22:45:55.456Z,71.13
2018-06-11T22:48:24.222Z,71.23
2018-06-11T22:50:52.981Z,70.98
2018-06-11T22:53:21.760Z,71.07
2018-06-11T22:55:50.549Z,71.58
2018-06-11T22:58:19.331Z,71.71
2018-06-11T23:00:48.099Z,72.01
2018-06-11T23:03:17.076Z,71.92
2018-06-11T23:05:45.872Z,71.77
2018-06-11T23:08:14.651Z,72.08
2018-06-11T23:10:43.434Z,72.18
2018-06-11T23:13:12.286Z,72.25
2018-06-11T23:15:41.079Z,72.66
2018-06-11T23:18:09.832Z,72.37
2018-06-11T23:20:38.596Z,72.48
2018-06-11T23:23:07.402Z,72.60
2018-06-11T23:25:36.219Z,72.83
2018-06-11T23:28:05.033Z,72.80
2018-06-11T23:30:33.798Z,73.00
2018-06-11T23:33:02.553Z,72.93
2018-06-11T23:35:31.350Z,73.32
2018-06-11T23:38:00.147Z,73.72
2018-06-11T23:40:28.915Z,73.86
2018-06-11T23:42:57.711Z,73.67
2018-06-11T23:45:26.535Z,73.51
2018-06-11T23:47:55.448Z,73.54
2018-06-11T23:50:24.225Z,73.73
2018-06-11T23:52:53.079Z,73.27
2018-06-11T23:55:21.879Z,73.72
2018-06-11T23:57:50.662Z,73.93
